createdAt,value
2023-04-05T00:00:12.627Z,99.90
2023-04-05T00:04:14.831Z,99.90
2023-04-05T00:08:24.142Z,99.90
2023-04-05T00:12:24.712Z,99.90
2023-04-05T00:16:27.922Z,99.90
2023-04-05T00:20:29.508Z,99.90
2023-04-05T00:24:31.356Z,99.90
2023-04-05T00:28:32.021Z,99.90
2023-04-05T00:32:35.652Z,99.90
2023-04-05T00:36:36.031Z,99.90
2023-04-05T00:40:36.654Z,99.90
2023-04-05T00:44:37.832Z,99.90
2023-04-05T00:48:42.542Z,99.90
2023-04-05T00:52:43.751Z,99.90
2023-04-05T00:56:45.905Z,99.90
2023-04-05T01:00:59.661Z,99.90
2023-04-05T01:05:12.043Z,99.90
2023-04-05T01:09:32.542Z,99.90
2023-04-05T01:13:33.616Z,99.90
2023-04-05T01:17:37.152Z,99.90
2023-04-05T01:22:14.419Z,99.90
2023-04-05T01:27:02.473Z,99.90
2023-04-05T01:31:11.700Z,99.90
2023-04-05T01:35:24.817Z,99.90
2023-04-05T01:39:27.390Z,99.90
2023-04-05T01:43:29.046Z,99.90
2023-04-05T01:47:32.402Z,99.90
2023-04-05T01:51:33.454Z,99.90
2023-04-05T01:55:34.156Z,99.90
2023-04-05T01:59:36.604Z,99.90
2023-04-05T02:03:39.774Z,99.90
2023-04-05T02:07:40.290Z,99.90
2023-04-05T02:11:40.898Z,99.90
2023-04-05T02:15:41.238Z,99.90
2023-04-05T02:19:47.169Z,99.90
2023-04-05T02:23:47.500Z,99.90
2023-04-05T02:27:48.585Z,99.90
2023-04-05T02:31:49.374Z,99.90
2023-04-05T02:35:56.644Z,99.90
2023-04-05T02:39:57.166Z,99.90
2023-04-05T02:43:58.012Z,99.90
2023-04-05T02:47:58.553Z,99.90
2023-04-05T02:52:03.177Z,99.90
2023-04-05T02:56:03.933Z,99.90
2023-04-05T03:00:09.146Z,99.90
2023-04-05T03:04:09.678Z,99.90
2023-04-05T03:08:19.016Z,99.90
2023-04-05T03:12:30.632Z,99.90
2023-04-05T03:16:31.509Z,99.90
2023-04-05T03:20:40.401Z,99.90
2023-04-05T03:24:51.061Z,99.90
2023-04-05T03:28:53.015Z,99.90
2023-04-05T03:33:01.464Z,99.90
2023-04-05T03:37:18.062Z,99.90
2023-04-05T03:41:26.410Z,99.90
2023-04-05T03:45:27.385Z,99.90
2023-04-05T03:49:27.828Z,99.90
2023-04-05T03:53:29.760Z,99.90
2023-04-05T03:57:35.960Z,99.90
2023-04-05T04:01:46.527Z,99.90
2023-04-05T04:05:48.573Z,99.90
2023-04-05T04:09:49.224Z,99.90
2023-04-05T04:13:53.305Z,99.90
2023-04-05T04:17:59.510Z,99.90
2023-04-05T04:22:20.996Z,99.90
2023-04-05T04:26:41.198Z,99.90
2023-04-05T04:31:05.264Z,99.90
2023-04-05T04:35:28.172Z,99.90
2023-04-05T04:39:36.157Z,99.90
2023-04-05T04:44:05.731Z,99.90
2023-04-05T04:48:19.052Z,99.90
2023-04-05T04:52:29.342Z,99.90
2023-04-05T04:56:30.080Z,99.90
2023-04-05T05:00:32.278Z,99.90
2023-04-05T05:04:37.941Z,99.90
2023-04-05T05:08:38.510Z,99.90
2023-04-05T05:12:39.006Z,99.90
2023-04-05T05:16:39.538Z,99.90
2023-04-05T05:20:43.456Z,99.90
2023-04-05T05:24:44.443Z,99.90
2023-04-05T05:28:46.316Z,99.90
2023-04-05T05:32:46.803Z,99.90
2023-04-05T05:36:50.053Z,99.90
2023-04-05T05:40:50.670Z,99.90
2023-04-05T05:44:51.112Z,99.90
2023-04-05T05:48:51.682Z,99.90
2023-04-05T05:52:54.944Z,99.90
2023-04-05T05:56:59.546Z,99.90
2023-04-05T06:01:00.055Z,99.90
2023-04-05T06:05:02.348Z,99.90
2023-04-05T06:09:06.416Z,99.90
2023-04-05T06:13:06.811Z,99.90
2023-04-05T06:17:07.115Z,99.90
2023-04-05T06:21:07.594Z,99.90
2023-04-05T06:25:13.270Z,99.90
2023-04-05T06:29:13.660Z,99.90
2023-04-05T06:33:13.969Z,99.90
2023-04-05T06:37:14.536Z,99.90
2023-04-05T06:41:17.690Z,99.90
2023-04-05T06:45:21.025Z,99.90
2023-04-05T06:49:21.497Z,99.90
2023-04-05T06:53:21.867Z,99.90
2023-04-05T06:57:24.935Z,99.90
2023-04-05T07:01:26.492Z,99.90
2023-04-05T07:05:27.105Z,99.90
2023-04-05T07:09:29.466Z,99.90
2023-04-05T07:13:32.851Z,99.90
2023-04-05T07:17:33.432Z,99.90
2023-04-05T07:21:33.946Z,99.90
2023-04-05T07:25:35.420Z,99.90
2023-04-05T07:29:41.013Z,99.90
2023-04-05T07:33:41.642Z,99.90
2023-04-05T07:37:42.082Z,99.90
2023-04-05T07:41:43.272Z,99.90
2023-04-05T07:45:46.563Z,99.90
2023-04-05T07:49:47.065Z,99.90
2023-04-05T07:53:47.544Z,99.90
2023-04-05T07:57:48.095Z,99.90
2023-04-05T08:01:51.575Z,99.90
2023-04-05T08:05:54.741Z,99.90
2023-04-05T08:09:57.791Z,99.90
2023-04-05T08:13:58.300Z,99.90
2023-04-05T08:18:01.473Z,99.90
2023-04-05T08:22:01.866Z,99.90
2023-04-05T08:26:03.850Z,99.90
2023-04-05T08:30:04.454Z,99.90
2023-04-05T08:34:11.101Z,99.90
2023-04-05T08:38:12.441Z,98.60
2023-04-05T08:42:20.016Z,97.30
2023-04-05T08:46:23.744Z,98.10
2023-04-05T08:50:28.215Z,97.50
2023-04-05T08:54:31.573Z,95.70
2023-04-05T08:58:34.468Z,95.10
2023-04-05T09:02:36.546Z,94.40
2023-04-05T09:06:40.409Z,95.20
2023-04-05T09:10:41.178Z,96.00
2023-04-05T09:14:46.463Z,95.60
2023-04-05T09:18:49.509Z,92.20
2023-04-05T09:22:52.619Z,90.60
2023-04-05T09:27:08.526Z,87.00
2023-04-05T09:31:10.651Z,84.80
2023-04-05T09:35:22.857Z,84.50
2023-04-05T09:39:33.165Z,84.70
2023-04-05T09:43:43.109Z,86.50
2023-04-05T09:51:50.016Z,75.80
2023-04-05T09:55:53.704Z,75.50
2023-04-05T09:59:57.687Z,78.40
2023-04-05T10:04:02.959Z,77.60
2023-04-05T10:08:07.215Z,78.00
2023-04-05T10:12:12.077Z,78.40
2023-04-05T10:16:24.206Z,79.70
2023-04-05T10:20:27.012Z,82.30
2023-04-05T10:24:47.238Z,77.50
2023-04-05T10:28:55.490Z,79.00
2023-04-05T10:33:19.975Z,78.50
2023-04-05T10:37:39.663Z,78.00
2023-04-05T10:41:46.284Z,76.20
2023-04-05T10:45:55.010Z,72.20
2023-04-05T10:50:03.237Z,72.50
2023-04-05T10:54:05.344Z,68.40
2023-04-05T10:58:07.543Z,72.40
2023-04-05T11:02:12.572Z,71.30
2023-04-05T11:06:35.707Z,68.80
2023-04-05T11:10:39.943Z,67.80
2023-04-05T11:14:43.674Z,67.90
2023-04-05T11:18:52.283Z,64.00
2023-04-05T11:22:58.066Z,65.40
2023-04-05T11:27:01.930Z,63.00
2023-04-05T11:31:19.616Z,59.10
2023-04-05T11:35:26.061Z,58.00
2023-04-05T11:39:31.179Z,58.90
2023-04-05T11:43:34.785Z,59.80
2023-04-05T11:47:41.331Z,59.90
2023-04-05T11:51:49.230Z,60.10
2023-04-05T11:55:55.546Z,61.70
2023-04-05T11:59:56.954Z,62.80
2023-04-05T12:03:59.174Z,64.40
2023-04-05T12:08:03.308Z,66.70
2023-04-05T12:12:03.780Z,67.70
2023-04-05T12:16:06.434Z,66.30
2023-04-05T12:20:08.599Z,65.30
2023-04-05T12:24:13.427Z,62.20
2023-04-05T12:28:13.913Z,58.60
2023-04-05T12:32:14.797Z,56.60
2023-04-05T12:36:18.693Z,57.10
2023-04-05T12:40:25.585Z,54.60
2023-04-05T12:44:34.844Z,50.60
2023-04-05T12:48:35.347Z,51.10
2023-04-05T12:52:37.473Z,51.30
2023-04-05T12:56:42.313Z,54.20
2023-04-05T13:00:42.710Z,55.80
2023-04-05T13:04:43.523Z,55.10
2023-04-05T13:08:43.881Z,54.20
2023-04-05T13:12:47.331Z,50.70
2023-04-05T13:16:47.655Z,50.10
2023-04-05T13:20:49.529Z,44.80
2023-04-05T13:24:52.118Z,44.00
2023-04-05T13:28:55.174Z,43.60
2023-04-05T13:32:55.772Z,44.40
2023-04-05T13:36:56.404Z,46.50
2023-04-05T13:40:56.872Z,43.60
2023-04-05T13:45:00.107Z,44.30
2023-04-05T13:49:02.240Z,46.70
2023-04-05T13:53:02.658Z,45.60
2023-04-05T13:57:03.704Z,44.40
2023-04-05T14:01:06.937Z,44.10
2023-04-05T14:05:08.342Z,44.60
2023-04-05T14:09:08.787Z,47.20
2023-04-05T14:13:13.471Z,46.10
2023-04-05T14:17:16.923Z,45.50
2023-04-05T14:21:17.380Z,44.30
2023-04-05T14:25:18.242Z,42.30
2023-04-05T14:29:19.088Z,41.50
2023-04-05T14:33:22.291Z,41.70
2023-04-05T14:37:22.757Z,41.00
2023-04-05T14:41:27.262Z,43.90
2023-04-05T14:45:28.902Z,43.50
2023-04-05T14:49:32.792Z,43.20
2023-04-05T14:53:34.224Z,42.30
2023-04-05T14:57:34.668Z,42.00
2023-04-05T15:01:35.451Z,44.80
2023-04-05T15:05:39.082Z,47.40
2023-04-05T15:09:39.713Z,49.20
2023-04-05T15:13:40.468Z,50.70
2023-04-05T15:17:41.511Z,52.40
2023-04-05T15:21:44.746Z,53.70
2023-04-05T15:25:46.359Z,55.10
2023-04-05T15:29:48.932Z,51.80
2023-04-05T15:33:53.081Z,47.60
2023-04-05T15:37:57.065Z,49.00
2023-04-05T15:42:01.848Z,50.80
2023-04-05T15:46:02.260Z,52.40
2023-04-05T15:50:02.895Z,52.50
2023-04-05T15:54:07.032Z,53.10
2023-04-05T15:58:07.795Z,53.90
2023-04-05T16:02:10.727Z,54.80
2023-04-05T16:06:11.776Z,56.10
2023-04-05T16:10:15.546Z,54.60
2023-04-05T16:14:18.070Z,55.00
2023-04-05T16:18:20.480Z,55.90
2023-04-05T16:22:21.265Z,56.80
2023-04-05T16:26:25.159Z,56.80
2023-04-05T16:30:26.242Z,57.50
2023-04-05T16:34:26.959Z,57.30
2023-04-05T16:38:27.897Z,55.60
2023-04-05T16:42:33.607Z,55.10
2023-04-05T16:46:34.333Z,54.40
2023-04-05T16:50:36.267Z,54.30
2023-04-05T16:54:37.166Z,54.20
2023-04-05T16:58:41.334Z,53.10
2023-04-05T17:02:41.780Z,53.60
2023-04-05T17:06:43.311Z,54.10
2023-04-05T17:10:43.716Z,55.90
2023-04-05T17:14:49.656Z,57.40
2023-04-05T17:18:50.168Z,58.80
2023-04-05T17:22:51.810Z,59.80
2023-04-05T17:26:52.350Z,61.40
2023-04-05T17:30:57.193Z,63.50
2023-04-05T17:34:58.024Z,65.10
2023-04-05T17:38:59.855Z,74.00
2023-04-05T17:43:01.047Z,77.20
2023-04-05T17:47:09.050Z,74.00
2023-04-05T17:51:15.791Z,74.40
2023-04-05T17:55:17.133Z,74.80
2023-04-05T17:59:18.987Z,76.50
2023-04-05T18:03:25.327Z,78.70
2023-04-05T18:07:29.665Z,79.70
2023-04-05T18:11:30.126Z,79.50
2023-04-05T18:15:30.876Z,83.40
2023-04-05T18:19:35.312Z,85.40
2023-04-05T18:23:37.149Z,86.10
2023-04-05T18:27:37.765Z,89.70
2023-04-05T18:31:38.694Z,90.60
2023-04-05T18:35:44.136Z,92.60
2023-04-05T18:39:46.373Z,94.50
2023-04-05T18:43:48.319Z,97.30
2023-04-05T18:47:49.232Z,99.20
2023-04-05T18:51:53.294Z,99.90
2023-04-05T18:55:55.839Z,99.90
2023-04-05T18:59:56.224Z,99.90
2023-04-05T19:03:57.548Z,99.90
2023-04-05T19:08:01.046Z,99.90
2023-04-05T19:12:01.606Z,99.90
2023-04-05T19:16:02.559Z,99.90
2023-04-05T19:20:04.399Z,99.90
2023-04-05T19:24:10.001Z,99.90
2023-04-05T19:28:11.980Z,99.90
2023-04-05T19:32:13.123Z,99.90
2023-04-05T19:36:13.785Z,99.90
2023-04-05T19:40:17.120Z,99.90
2023-04-05T19:44:41.365Z,99.90
2023-04-05T19:48:43.565Z,99.90
2023-04-05T19:52:51.046Z,99.90
2023-04-05T19:56:55.010Z,99.90
2023-04-05T20:00:56.512Z,99.90
2023-04-05T20:04:59.276Z,99.90
2023-04-05T20:09:07.931Z,99.90
2023-04-05T20:13:12.387Z,99.90
2023-04-05T20:17:16.689Z,99.90
2023-04-05T20:21:19.764Z,99.90
2023-04-05T20:25:40.755Z,99.90
2023-04-05T20:29:43.930Z,99.90
2023-04-05T20:34:00.253Z,99.90
2023-04-05T20:38:01.790Z,99.90
2023-04-05T20:42:03.985Z,99.90
2023-04-05T20:46:09.610Z,99.90
2023-04-05T20:50:13.215Z,99.90
2023-04-05T20:54:14.353Z,99.90
2023-04-05T20:58:17.140Z,99.90
2023-04-05T21:02:22.776Z,99.90
2023-04-05T21:06:23.343Z,99.90
2023-04-05T21:10:25.020Z,99.90
2023-04-05T21:14:25.374Z,99.90
2023-04-05T21:18:30.938Z,99.90
2023-04-05T21:22:32.573Z,99.90
2023-04-05T21:26:33.129Z,99.90
2023-04-05T21:30:33.561Z,99.90
2023-04-05T21:34:38.597Z,99.90
2023-04-05T21:38:38.969Z,99.90
2023-04-05T21:42:39.696Z,99.90
2023-04-05T21:46:40.212Z,99.90
2023-04-05T21:50:43.621Z,99.90
2023-04-05T21:54:44.142Z,99.90
2023-04-05T21:58:45.003Z,99.90
2023-04-05T22:02:47.027Z,99.90
2023-04-05T22:06:50.260Z,99.90
2023-04-05T22:10:50.597Z,99.90
2023-04-05T22:14:51.144Z,99.90
2023-04-05T22:18:51.455Z,99.90
2023-04-05T22:22:54.328Z,99.90
2023-04-05T22:26:56.891Z,99.90
2023-04-05T22:30:57.877Z,99.90
2023-04-05T22:34:58.653Z,99.90
2023-04-05T22:39:02.182Z,99.90
2023-04-05T22:43:02.608Z,99.90
2023-04-05T22:47:03.539Z,99.90
2023-04-05T22:51:04.430Z,99.90
2023-04-05T22:55:09.167Z,99.90
2023-04-05T22:59:09.781Z,99.90
2023-04-05T23:03:10.445Z,99.90
2023-04-05T23:07:10.911Z,99.90
2023-04-05T23:11:13.859Z,99.90
2023-04-05T23:15:15.360Z,99.90
2023-04-05T23:19:16.769Z,99.90
2023-04-05T23:23:17.364Z,99.90
2023-04-05T23:27:21.426Z,99.90
2023-04-05T23:31:22.047Z,99.90
2023-04-05T23:35:22.739Z,99.90
2023-04-05T23:39:23.182Z,99.90
2023-04-05T23:43:26.369Z,99.90
2023-04-05T23:47:26.797Z,99.90
2023-04-05T23:51:27.343Z,99.90
2023-04-05T23:55:27.677Z,99.90
2023-04-05T23:59:31.089Z,99.90
